sensor_id;sensor_type;location;lat;lon;timestamp;P1;durP1;ratioP1;P2;durP2;ratioP2
75858;SDS011;64504;51.308;8.620;2023-03-13T00:00:34;16.90;;;6.22;;
75858;SDS011;64504;51.308;8.620;2023-03-13T00:02:59;20.90;;;6.05;;
75858;SDS011;64504;51.308;8.620;2023-03-13T00:05:25;17.25;;;5.55;;
75858;SDS011;64504;51.308;8.620;2023-03-13T00:07:50;17.55;;;6.55;;
75858;SDS011;64504;51.308;8.620;2023-03-13T00:10:16;12.40;;;5.55;;
75858;SDS011;64504;51.308;8.620;2023-03-13T00:12:41;15.65;;;5.70;;
75858;SDS011;64504;51.308;8.620;2023-03-13T00:15:07;12.05;;;6.05;;
75858;SDS011;64504;51.308;8.620;2023-03-13T00:17:33;18.38;;;5.13;;
75858;SDS011;64504;51.308;8.620;2023-03-13T00:20:00;12.70;;;4.65;;
75858;SDS011;64504;51.308;8.620;2023-03-13T00:22:27;14.75;;;5.68;;
75858;SDS011;64504;51.308;8.620;2023-03-13T00:24:53;11.70;;;6.15;;
75858;SDS011;64504;51.308;8.620;2023-03-13T00:27:19;8.63;;;4.43;;
75858;SDS011;64504;51.308;8.620;2023-03-13T00:29:44;24.83;;;6.10;;
75858;SDS011;64504;51.308;8.620;2023-03-13T00:32:10;16.00;;;5.93;;
75858;SDS011;64504;51.308;8.620;2023-03-13T00:34:35;12.02;;;5.03;;
75858;SDS011;64504;51.308;8.620;2023-03-13T00:37:01;23.60;;;4.63;;
75858;SDS011;64504;51.308;8.620;2023-03-13T00:39:26;25.58;;;5.95;;
75858;SDS011;64504;51.308;8.620;2023-03-13T00:41:52;24.65;;;7.15;;
75858;SDS011;64504;51.308;8.620;2023-03-13T00:44:17;13.60;;;4.72;;
75858;SDS011;64504;51.308;8.620;2023-03-13T00:46:43;12.52;;;4.28;;
75858;SDS011;64504;51.308;8.620;2023-03-13T00:49:09;15.77;;;5.45;;
75858;SDS011;64504;51.308;8.620;2023-03-13T00:51:34;10.52;;;5.43;;
75858;SDS011;64504;51.308;8.620;2023-03-13T00:54:00;13.18;;;4.22;;
75858;SDS011;64504;51.308;8.620;2023-03-13T00:56:26;13.98;;;5.15;;
75858;SDS011;64504;51.308;8.620;2023-03-13T00:58:52;15.13;;;5.30;;
75858;SDS011;64504;51.308;8.620;2023-03-13T01:01:25;24.08;;;7.32;;
75858;SDS011;64504;51.308;8.620;2023-03-13T01:03:53;21.40;;;6.85;;
75858;SDS011;64504;51.308;8.620;2023-03-13T01:06:24;17.05;;;5.53;;
75858;SDS011;64504;51.308;8.620;2023-03-13T01:08:51;18.92;;;6.45;;
75858;SDS011;64504;51.308;8.620;2023-03-13T01:11:27;14.85;;;6.03;;
75858;SDS011;64504;51.308;8.620;2023-03-13T01:13:55;29.60;;;6.68;;
75858;SDS011;64504;51.308;8.620;2023-03-13T01:16:22;20.83;;;5.93;;
75858;SDS011;64504;51.308;8.620;2023-03-13T01:18:49;16.35;;;5.00;;
75858;SDS011;64504;51.308;8.620;2023-03-13T01:21:16;16.83;;;5.07;;
75858;SDS011;64504;51.308;8.620;2023-03-13T01:23:44;14.60;;;4.72;;
75858;SDS011;64504;51.308;8.620;2023-03-13T01:26:10;24.45;;;5.10;;
75858;SDS011;64504;51.308;8.620;2023-03-13T01:28:36;6.30;;;3.92;;
75858;SDS011;64504;51.308;8.620;2023-03-13T01:31:18;7.13;;;4.40;;
75858;SDS011;64504;51.308;8.620;2023-03-13T01:33:49;11.80;;;3.78;;
75858;SDS011;64504;51.308;8.620;2023-03-13T01:36:16;16.17;;;4.40;;
75858;SDS011;64504;51.308;8.620;2023-03-13T01:38:43;11.73;;;4.72;;
75858;SDS011;64504;51.308;8.620;2023-03-13T01:41:09;9.52;;;5.72;;
75858;SDS011;64504;51.308;8.620;2023-03-13T01:43:36;15.85;;;5.05;;
75858;SDS011;64504;51.308;8.620;2023-03-13T01:46:04;16.30;;;5.18;;
75858;SDS011;64504;51.308;8.620;2023-03-13T01:51:32;12.00;;;5.13;;
75858;SDS011;64504;51.308;8.620;2023-03-13T01:54:06;24.17;;;5.13;;
75858;SDS011;64504;51.308;8.620;2023-03-13T01:56:38;10.35;;;5.68;;
75858;SDS011;64504;51.308;8.620;2023-03-13T01:59:08;17.35;;;4.88;;
75858;SDS011;64504;51.308;8.620;2023-03-13T02:01:36;6.57;;;3.85;;
75858;SDS011;64504;51.308;8.620;2023-03-13T02:04:02;16.08;;;4.82;;
75858;SDS011;64504;51.308;8.620;2023-03-13T02:06:30;23.67;;;5.93;;
75858;SDS011;64504;51.308;8.620;2023-03-13T02:08:58;28.77;;;5.82;;
75858;SDS011;64504;51.308;8.620;2023-03-13T02:13:57;19.05;;;6.38;;
75858;SDS011;64504;51.308;8.620;2023-03-13T02:16:24;10.75;;;6.15;;
75858;SDS011;64504;51.308;8.620;2023-03-13T02:18:50;18.55;;;5.78;;
75858;SDS011;64504;51.308;8.620;2023-03-13T02:21:21;23.02;;;6.35;;
75858;SDS011;64504;51.308;8.620;2023-03-13T02:26:27;13.07;;;5.13;;
75858;SDS011;64504;51.308;8.620;2023-03-13T02:28:55;8.25;;;5.28;;
75858;SDS011;64504;51.308;8.620;2023-03-13T02:33:55;8.27;;;5.28;;
75858;SDS011;64504;51.308;8.620;2023-03-13T02:36:23;15.30;;;4.97;;
75858;SDS011;64504;51.308;8.620;2023-03-13T02:38:50;18.67;;;6.78;;
75858;SDS011;64504;51.308;8.620;2023-03-13T02:41:21;14.65;;;5.72;;
75858;SDS011;64504;51.308;8.620;2023-03-13T02:43:47;13.00;;;5.22;;
75858;SDS011;64504;51.308;8.620;2023-03-13T02:46:14;20.45;;;6.38;;
75858;SDS011;64504;51.308;8.620;2023-03-13T02:48:42;8.18;;;3.55;;
75858;SDS011;64504;51.308;8.620;2023-03-13T02:51:24;6.00;;;3.67;;
75858;SDS011;64504;51.308;8.620;2023-03-13T02:53:57;10.88;;;3.92;;
75858;SDS011;64504;51.308;8.620;2023-03-13T02:56:25;9.43;;;4.22;;
75858;SDS011;64504;51.308;8.620;2023-03-13T02:58:51;7.57;;;3.58;;
75858;SDS011;64504;51.308;8.620;2023-03-13T03:01:16;6.45;;;3.40;;
75858;SDS011;64504;51.308;8.620;2023-03-13T03:03:42;7.38;;;3.88;;
75858;SDS011;64504;51.308;8.620;2023-03-13T03:06:07;6.47;;;3.42;;
75858;SDS011;64504;51.308;8.620;2023-03-13T03:08:33;15.38;;;3.70;;
75858;SDS011;64504;51.308;8.620;2023-03-13T03:10:59;5.00;;;2.33;;
75858;SDS011;64504;51.308;8.620;2023-03-13T03:13:25;5.03;;;2.03;;
75858;SDS011;64504;51.308;8.620;2023-03-13T03:15:51;5.70;;;2.67;;
75858;SDS011;64504;51.308;8.620;2023-03-13T03:18:16;4.07;;;2.80;;
75858;SDS011;64504;51.308;8.620;2023-03-13T03:20:42;5.15;;;2.58;;
75858;SDS011;64504;51.308;8.620;2023-03-13T03:23:07;4.70;;;3.15;;
75858;SDS011;64504;51.308;8.620;2023-03-13T03:25:33;8.25;;;2.08;;
75858;SDS011;64504;51.308;8.620;2023-03-13T03:27:59;5.68;;;2.28;;
75858;SDS011;64504;51.308;8.620;2023-03-13T03:30:24;1.65;;;1.25;;
75858;SDS011;64504;51.308;8.620;2023-03-13T03:32:50;5.78;;;1.30;;
75858;SDS011;64504;51.308;8.620;2023-03-13T03:35:15;2.72;;;1.45;;
75858;SDS011;64504;51.308;8.620;2023-03-13T03:37:41;1.48;;;1.38;;
75858;SDS011;64504;51.308;8.620;2023-03-13T03:40:06;6.88;;;1.95;;
75858;SDS011;64504;51.308;8.620;2023-03-13T03:42:33;3.25;;;2.03;;
75858;SDS011;64504;51.308;8.620;2023-03-13T03:44:59;1.55;;;1.02;;
75858;SDS011;64504;51.308;8.620;2023-03-13T03:47:24;2.38;;;1.38;;
75858;SDS011;64504;51.308;8.620;2023-03-13T03:49:49;1.10;;;0.98;;
75858;SDS011;64504;51.308;8.620;2023-03-13T03:52:15;1.00;;;0.90;;
75858;SDS011;64504;51.308;8.620;2023-03-13T03:54:40;1.83;;;0.95;;
75858;SDS011;64504;51.308;8.620;2023-03-13T03:57:06;1.60;;;1.23;;
75858;SDS011;64504;51.308;8.620;2023-03-13T03:59:31;0.90;;;0.90;;
75858;SDS011;64504;51.308;8.620;2023-03-13T04:01:56;1.15;;;0.77;;
75858;SDS011;64504;51.308;8.620;2023-03-13T04:04:22;0.80;;;0.75;;
75858;SDS011;64504;51.308;8.620;2023-03-13T04:06:48;0.88;;;0.82;;
75858;SDS011;64504;51.308;8.620;2023-03-13T04:09:14;0.70;;;0.55;;
75858;SDS011;64504;51.308;8.620;2023-03-13T04:11:39;0.95;;;0.73;;
75858;SDS011;64504;51.308;8.620;2023-03-13T04:14:05;0.93;;;0.77;;
75858;SDS011;64504;51.308;8.620;2023-03-13T04:16:33;0.63;;;0.63;;
75858;SDS011;64504;51.308;8.620;2023-03-13T04:18:59;1.17;;;0.93;;
75858;SDS011;64504;51.308;8.620;2023-03-13T04:21:24;1.20;;;0.60;;
75858;SDS011;64504;51.308;8.620;2023-03-13T04:23:50;3.45;;;0.95;;
75858;SDS011;64504;51.308;8.620;2023-03-13T04:26:15;1.60;;;1.50;;
75858;SDS011;64504;51.308;8.620;2023-03-13T04:28:42;0.63;;;0.47;;
75858;SDS011;64504;51.308;8.620;2023-03-13T04:31:07;1.65;;;0.95;;
75858;SDS011;64504;51.308;8.620;2023-03-13T04:33:32;8.20;;;0.68;;
75858;SDS011;64504;51.308;8.620;2023-03-13T04:36:00;0.70;;;0.70;;
75858;SDS011;64504;51.308;8.620;2023-03-13T04:38:26;0.63;;;0.63;;
75858;SDS011;64504;51.308;8.620;2023-03-13T04:40:51;0.70;;;0.60;;
75858;SDS011;64504;51.308;8.620;2023-03-13T04:43:17;1.45;;;0.77;;
75858;SDS011;64504;51.308;8.620;2023-03-13T04:45:42;1.08;;;1.05;;
75858;SDS011;64504;51.308;8.620;2023-03-13T04:48:08;0.70;;;0.70;;
75858;SDS011;64504;51.308;8.620;2023-03-13T04:50:33;0.40;;;0.40;;
75858;SDS011;64504;51.308;8.620;2023-03-13T04:52:59;0.63;;;0.63;;
75858;SDS011;64504;51.308;8.620;2023-03-13T04:55:24;2.45;;;0.75;;
75858;SDS011;64504;51.308;8.620;2023-03-13T04:57:50;5.00;;;1.13;;
75858;SDS011;64504;51.308;8.620;2023-03-13T05:00:15;1.27;;;1.05;;
75858;SDS011;64504;51.308;8.620;2023-03-13T05:02:41;2.78;;;1.25;;
75858;SDS011;64504;51.308;8.620;2023-03-13T05:05:07;1.45;;;1.35;;
75858;SDS011;64504;51.308;8.620;2023-03-13T05:07:33;2.33;;;1.60;;
75858;SDS011;64504;51.308;8.620;2023-03-13T05:09:58;2.20;;;1.70;;
75858;SDS011;64504;51.308;8.620;2023-03-13T05:12:24;1.95;;;1.70;;
75858;SDS011;64504;51.308;8.620;2023-03-13T05:14:49;2.10;;;1.80;;
75858;SDS011;64504;51.308;8.620;2023-03-13T05:17:15;7.07;;;2.38;;
75858;SDS011;64504;51.308;8.620;2023-03-13T05:19:41;3.65;;;1.55;;
75858;SDS011;64504;51.308;8.620;2023-03-13T05:22:07;1.60;;;1.40;;
75858;SDS011;64504;51.308;8.620;2023-03-13T05:24:32;1.23;;;0.80;;
75858;SDS011;64504;51.308;8.620;2023-03-13T05:26:58;2.22;;;1.73;;
75858;SDS011;64504;51.308;8.620;2023-03-13T05:29:23;1.75;;;0.93;;
75858;SDS011;64504;51.308;8.620;2023-03-13T05:31:49;2.03;;;1.50;;
75858;SDS011;64504;51.308;8.620;2023-03-13T05:34:14;1.20;;;1.08;;
75858;SDS011;64504;51.308;8.620;2023-03-13T05:36:39;1.58;;;1.17;;
75858;SDS011;64504;51.308;8.620;2023-03-13T05:39:05;0.95;;;0.95;;
75858;SDS011;64504;51.308;8.620;2023-03-13T05:41:30;1.20;;;1.10;;
75858;SDS011;64504;51.308;8.620;2023-03-13T05:43:57;0.75;;;0.75;;
75858;SDS011;64504;51.308;8.620;2023-03-13T05:46:22;0.98;;;0.80;;
75858;SDS011;64504;51.308;8.620;2023-03-13T05:48:47;0.73;;;0.73;;
75858;SDS011;64504;51.308;8.620;2023-03-13T05:51:13;1.30;;;0.93;;
75858;SDS011;64504;51.308;8.620;2023-03-13T05:53:38;1.50;;;0.80;;
75858;SDS011;64504;51.308;8.620;2023-03-13T05:56:04;1.38;;;1.00;;
75858;SDS011;64504;51.308;8.620;2023-03-13T05:58:29;2.33;;;1.08;;
75858;SDS011;64504;51.308;8.620;2023-03-13T06:00:55;0.75;;;0.75;;
75858;SDS011;64504;51.308;8.620;2023-03-13T06:03:20;3.17;;;1.23;;
75858;SDS011;64504;51.308;8.620;2023-03-13T06:05:46;0.90;;;0.90;;
75858;SDS011;64504;51.308;8.620;2023-03-13T06:08:11;0.60;;;0.60;;
75858;SDS011;64504;51.308;8.620;2023-03-13T06:10:37;0.73;;;0.68;;
75858;SDS011;64504;51.308;8.620;2023-03-13T06:13:02;1.17;;;1.13;;
75858;SDS011;64504;51.308;8.620;2023-03-13T06:15:29;1.23;;;0.80;;
75858;SDS011;64504;51.308;8.620;2023-03-13T06:17:54;0.70;;;0.70;;
75858;SDS011;64504;51.308;8.620;2023-03-13T06:20:20;1.35;;;1.25;;
75858;SDS011;64504;51.308;8.620;2023-03-13T06:22:46;1.20;;;1.10;;
75858;SDS011;64504;51.308;8.620;2023-03-13T06:25:12;2.35;;;1.17;;
75858;SDS011;64504;51.308;8.620;2023-03-13T06:27:37;1.35;;;1.25;;
75858;SDS011;64504;51.308;8.620;2023-03-13T06:30:05;1.33;;;1.23;;
75858;SDS011;64504;51.308;8.620;2023-03-13T06:32:31;1.75;;;0.95;;
75858;SDS011;64504;51.308;8.620;2023-03-13T06:34:56;1.48;;;1.30;;
75858;SDS011;64504;51.308;8.620;2023-03-13T06:37:22;1.67;;;1.42;;
75858;SDS011;64504;51.308;8.620;2023-03-13T06:39:47;2.13;;;1.48;;
75858;SDS011;64504;51.308;8.620;2023-03-13T06:42:12;1.58;;;1.35;;
75858;SDS011;64504;51.308;8.620;2023-03-13T06:44:38;1.58;;;1.48;;
75858;SDS011;64504;51.308;8.620;2023-03-13T06:47:03;1.67;;;1.58;;
75858;SDS011;64504;51.308;8.620;2023-03-13T06:49:29;1.50;;;1.30;;
75858;SDS011;64504;51.308;8.620;2023-03-13T06:51:58;1.95;;;1.85;;
75858;SDS011;64504;51.308;8.620;2023-03-13T06:54:23;2.10;;;1.83;;
75858;SDS011;64504;51.308;8.620;2023-03-13T06:56:49;1.52;;;1.42;;
75858;SDS011;64504;51.308;8.620;2023-03-13T06:59:14;2.28;;;2.00;;
75858;SDS011;64504;51.308;8.620;2023-03-13T07:01:40;2.33;;;1.70;;
75858;SDS011;64504;51.308;8.620;2023-03-13T07:04:05;1.80;;;1.70;;
75858;SDS011;64504;51.308;8.620;2023-03-13T07:06:31;1.45;;;1.35;;
75858;SDS011;64504;51.308;8.620;2023-03-13T07:08:56;1.70;;;1.60;;
75858;SDS011;64504;51.308;8.620;2023-03-13T07:11:22;2.60;;;2.40;;
75858;SDS011;64504;51.308;8.620;2023-03-13T07:13:47;3.83;;;1.95;;
75858;SDS011;64504;51.308;8.620;2023-03-13T07:16:13;1.63;;;1.52;;
75858;SDS011;64504;51.308;8.620;2023-03-13T07:18:39;2.28;;;1.45;;
75858;SDS011;64504;51.308;8.620;2023-03-13T07:21:08;1.30;;;1.25;;
75858;SDS011;64504;51.308;8.620;2023-03-13T07:23:35;1.30;;;1.20;;
75858;SDS011;64504;51.308;8.620;2023-03-13T07:26:01;1.75;;;1.58;;
75858;SDS011;64504;51.308;8.620;2023-03-13T07:28:29;1.58;;;1.38;;
75858;SDS011;64504;51.308;8.620;2023-03-13T07:31:02;4.07;;;1.98;;
75858;SDS011;64504;51.308;8.620;2023-03-13T07:33:37;1.65;;;1.40;;
75858;SDS011;64504;51.308;8.620;2023-03-13T07:36:02;2.35;;;1.20;;
75858;SDS011;64504;51.308;8.620;2023-03-13T07:38:28;1.17;;;1.08;;
75858;SDS011;64504;51.308;8.620;2023-03-13T07:40:55;3.22;;;1.63;;
75858;SDS011;64504;51.308;8.620;2023-03-13T07:43:21;2.80;;;2.33;;
75858;SDS011;64504;51.308;8.620;2023-03-13T07:48:29;2.13;;;1.40;;
75858;SDS011;64504;51.308;8.620;2023-03-13T07:50:56;3.20;;;1.80;;
75858;SDS011;64504;51.308;8.620;2023-03-13T07:53:22;1.25;;;1.15;;
75858;SDS011;64504;51.308;8.620;2023-03-13T07:55:52;4.63;;;2.05;;
75858;SDS011;64504;51.308;8.620;2023-03-13T07:58:32;1.38;;;1.25;;
75858;SDS011;64504;51.308;8.620;2023-03-13T08:00:59;6.57;;;2.05;;
75858;SDS011;64504;51.308;8.620;2023-03-13T08:03:25;2.15;;;1.60;;
75858;SDS011;64504;51.308;8.620;2023-03-13T08:06:07;2.53;;;1.45;;
75858;SDS011;64504;51.308;8.620;2023-03-13T08:08:35;2.85;;;2.08;;
75858;SDS011;64504;51.308;8.620;2023-03-13T08:11:03;1.83;;;1.35;;
75858;SDS011;64504;51.308;8.620;2023-03-13T08:13:33;3.35;;;2.50;;
75858;SDS011;64504;51.308;8.620;2023-03-13T08:16:03;4.45;;;1.52;;
75858;SDS011;64504;51.308;8.620;2023-03-13T08:18:39;2.17;;;2.00;;
75858;SDS011;64504;51.308;8.620;2023-03-13T08:21:07;2.33;;;1.73;;
75858;SDS011;64504;51.308;8.620;2023-03-13T08:23:34;2.58;;;2.13;;
75858;SDS011;64504;51.308;8.620;2023-03-13T08:26:10;2.22;;;1.70;;
75858;SDS011;64504;51.308;8.620;2023-03-13T08:28:39;4.10;;;2.17;;
75858;SDS011;64504;51.308;8.620;2023-03-13T08:31:12;8.00;;;2.00;;
75858;SDS011;64504;51.308;8.620;2023-03-13T08:33:39;3.08;;;2.47;;
75858;SDS011;64504;51.308;8.620;2023-03-13T08:36:10;7.00;;;2.28;;
75858;SDS011;64504;51.308;8.620;2023-03-13T08:41:08;2.38;;;2.10;;
75858;SDS011;64504;51.308;8.620;2023-03-13T08:43:34;4.97;;;2.25;;
75858;SDS011;64504;51.308;8.620;2023-03-13T08:46:00;2.47;;;1.90;;
75858;SDS011;64504;51.308;8.620;2023-03-13T08:48:25;2.33;;;2.15;;
75858;SDS011;64504;51.308;8.620;2023-03-13T08:51:05;1.83;;;1.73;;
75858;SDS011;64504;51.308;8.620;2023-03-13T08:53:33;1.42;;;1.33;;
75858;SDS011;64504;51.308;8.620;2023-03-13T08:56:00;2.22;;;1.42;;
75858;SDS011;64504;51.308;8.620;2023-03-13T08:58:26;3.42;;;2.10;;
75858;SDS011;64504;51.308;8.620;2023-03-13T09:00:52;2.33;;;1.50;;
75858;SDS011;64504;51.308;8.620;2023-03-13T09:03:17;10.98;;;2.08;;
75858;SDS011;64504;51.308;8.620;2023-03-13T09:05:43;2.00;;;1.35;;
75858;SDS011;64504;51.308;8.620;2023-03-13T09:08:10;3.72;;;2.90;;
75858;SDS011;64504;51.308;8.620;2023-03-13T09:10:36;5.00;;;2.30;;
75858;SDS011;64504;51.308;8.620;2023-03-13T09:13:01;4.90;;;2.10;;
75858;SDS011;64504;51.308;8.620;2023-03-13T09:15:27;3.97;;;2.00;;
75858;SDS011;64504;51.308;8.620;2023-03-13T09:17:52;2.25;;;2.08;;
75858;SDS011;64504;51.308;8.620;2023-03-13T09:20:18;4.47;;;2.72;;
75858;SDS011;64504;51.308;8.620;2023-03-13T09:22:44;3.08;;;1.70;;
75858;SDS011;64504;51.308;8.620;2023-03-13T09:25:10;2.50;;;1.95;;
75858;SDS011;64504;51.308;8.620;2023-03-13T09:27:36;4.80;;;2.45;;
75858;SDS011;64504;51.308;8.620;2023-03-13T09:30:01;6.85;;;3.53;;
75858;SDS011;64504;51.308;8.620;2023-03-13T09:32:27;3.25;;;2.28;;
75858;SDS011;64504;51.308;8.620;2023-03-13T09:34:52;9.65;;;2.65;;
75858;SDS011;64504;51.308;8.620;2023-03-13T09:37:18;5.13;;;2.20;;
75858;SDS011;64504;51.308;8.620;2023-03-13T09:39:43;3.40;;;2.65;;
75858;SDS011;64504;51.308;8.620;2023-03-13T09:44:36;3.30;;;2.10;;
75858;SDS011;64504;51.308;8.620;2023-03-13T09:47:08;5.28;;;2.10;;
75858;SDS011;64504;51.308;8.620;2023-03-13T09:49:36;4.20;;;2.40;;
75858;SDS011;64504;51.308;8.620;2023-03-13T09:52:27;3.25;;;2.20;;
75858;SDS011;64504;51.308;8.620;2023-03-13T09:57:32;5.50;;;2.00;;
75858;SDS011;64504;51.308;8.620;2023-03-13T10:00:01;3.30;;;1.70;;
75858;SDS011;64504;51.308;8.620;2023-03-13T10:02:31;7.82;;;1.90;;
75858;SDS011;64504;51.308;8.620;2023-03-13T10:05:06;3.83;;;3.25;;
75858;SDS011;64504;51.308;8.620;2023-03-13T10:07:32;2.70;;;1.98;;
75858;SDS011;64504;51.308;8.620;2023-03-13T10:09:59;1.85;;;1.45;;
75858;SDS011;64504;51.308;8.620;2023-03-13T10:12:29;2.47;;;2.28;;
75858;SDS011;64504;51.308;8.620;2023-03-13T10:15:45;6.28;;;1.88;;
75858;SDS011;64504;51.308;8.620;2023-03-13T10:17:48;6.70;;;1.90;;
75858;SDS011;64504;51.308;8.620;2023-03-13T10:22:50;1.67;;;1.52;;
75858;SDS011;64504;51.308;8.620;2023-03-13T10:25:26;5.78;;;2.35;;
75858;SDS011;64504;51.308;8.620;2023-03-13T10:27:56;1.77;;;1.67;;
75858;SDS011;64504;51.308;8.620;2023-03-13T10:30:24;2.47;;;1.98;;
75858;SDS011;64504;51.308;8.620;2023-03-13T10:32:56;2.10;;;1.95;;
75858;SDS011;64504;51.308;8.620;2023-03-13T10:35:24;2.47;;;2.28;;
75858;SDS011;64504;51.308;8.620;2023-03-13T10:38:01;1.77;;;1.60;;
75858;SDS011;64504;51.308;8.620;2023-03-13T10:40:29;4.90;;;2.45;;
75858;SDS011;64504;51.308;8.620;2023-03-13T10:43:02;1.58;;;1.48;;
75858;SDS011;64504;51.308;8.620;2023-03-13T10:45:39;2.15;;;1.73;;
75858;SDS011;64504;51.308;8.620;2023-03-13T10:50:43;7.43;;;2.08;;
75858;SDS011;64504;51.308;8.620;2023-03-13T10:55:51;3.78;;;1.25;;
75858;SDS011;64504;51.308;8.620;2023-03-13T10:58:25;1.98;;;1.40;;
75858;SDS011;64504;51.308;8.620;2023-03-13T11:03:50;3.10;;;1.27;;
75858;SDS011;64504;51.308;8.620;2023-03-13T11:06:30;1.60;;;1.13;;
75858;SDS011;64504;51.308;8.620;2023-03-13T11:09:12;0.90;;;0.90;;
75858;SDS011;64504;51.308;8.620;2023-03-13T11:12:01;0.80;;;0.80;;
75858;SDS011;64504;51.308;8.620;2023-03-13T11:14:31;1.00;;;0.90;;
75858;SDS011;64504;51.308;8.620;2023-03-13T11:17:02;0.75;;;0.75;;
75858;SDS011;64504;51.308;8.620;2023-03-13T11:22:11;1.42;;;1.33;;
75858;SDS011;64504;51.308;8.620;2023-03-13T11:24:51;2.22;;;1.10;;
75858;SDS011;64504;51.308;8.620;2023-03-13T11:30:00;1.88;;;1.58;;
75858;SDS011;64504;51.308;8.620;2023-03-13T11:32:40;2.22;;;1.63;;
75858;SDS011;64504;51.308;8.620;2023-03-13T11:35:14;2.20;;;1.20;;
75858;SDS011;64504;51.308;8.620;2023-03-13T11:37:42;2.07;;;1.20;;
75858;SDS011;64504;51.308;8.620;2023-03-13T11:43:03;0.88;;;0.88;;
75858;SDS011;64504;51.308;8.620;2023-03-13T12:01:50;1.20;;;0.85;;
75858;SDS011;64504;51.308;8.620;2023-03-13T12:04:23;4.07;;;1.15;;
75858;SDS011;64504;51.308;8.620;2023-03-13T12:06:58;1.17;;;1.08;;
75858;SDS011;64504;51.308;8.620;2023-03-13T12:09:49;0.73;;;0.73;;
75858;SDS011;64504;51.308;8.620;2023-03-13T12:12:27;1.23;;;0.82;;
75858;SDS011;64504;51.308;8.620;2023-03-13T12:18:48;1.88;;;0.98;;
75858;SDS011;64504;51.308;8.620;2023-03-13T12:24:03;0.50;;;0.50;;
75858;SDS011;64504;51.308;8.620;2023-03-13T12:32:13;0.85;;;0.80;;
75858;SDS011;64504;51.308;8.620;2023-03-13T12:42:50;1.55;;;0.88;;
75858;SDS011;64504;51.308;8.620;2023-03-13T12:45:20;0.60;;;0.60;;
75858;SDS011;64504;51.308;8.620;2023-03-13T12:58:53;3.28;;;1.48;;
75858;SDS011;64504;51.308;8.620;2023-03-13T13:01:27;1.27;;;1.20;;
75858;SDS011;64504;51.308;8.620;2023-03-13T13:04:29;4.97;;;1.38;;
75858;SDS011;64504;51.308;8.620;2023-03-13T13:06:59;1.15;;;1.00;;
75858;SDS011;64504;51.308;8.620;2023-03-13T13:09:28;0.82;;;0.82;;
75858;SDS011;64504;51.308;8.620;2023-03-13T13:11:55;0.82;;;0.68;;
75858;SDS011;64504;51.308;8.620;2023-03-13T13:24:51;1.83;;;1.30;;
75858;SDS011;64504;51.308;8.620;2023-03-13T13:29:56;0.80;;;0.80;;
75858;SDS011;64504;51.308;8.620;2023-03-13T13:32:37;1.25;;;1.00;;
75858;SDS011;64504;51.308;8.620;2023-03-13T13:37:38;0.95;;;0.85;;
75858;SDS011;64504;51.308;8.620;2023-03-13T13:40:21;1.05;;;0.95;;
75858;SDS011;64504;51.308;8.620;2023-03-13T13:47:46;0.60;;;0.60;;
75858;SDS011;64504;51.308;8.620;2023-03-13T13:50:17;1.33;;;1.25;;
75858;SDS011;64504;51.308;8.620;2023-03-13T13:52:43;0.82;;;0.82;;
75858;SDS011;64504;51.308;8.620;2023-03-13T13:58:04;1.50;;;1.25;;
75858;SDS011;64504;51.308;8.620;2023-03-13T14:00:45;1.40;;;1.00;;
75858;SDS011;64504;51.308;8.620;2023-03-13T14:03:21;1.17;;;1.08;;
75858;SDS011;64504;51.308;8.620;2023-03-13T14:05:53;1.15;;;1.05;;
75858;SDS011;64504;51.308;8.620;2023-03-13T14:08:25;3.20;;;1.45;;
75858;SDS011;64504;51.308;8.620;2023-03-13T14:13:38;1.45;;;1.35;;
75858;SDS011;64504;51.308;8.620;2023-03-13T14:16:38;1.20;;;1.17;;
75858;SDS011;64504;51.308;8.620;2023-03-13T14:18:55;1.27;;;1.10;;
75858;SDS011;64504;51.308;8.620;2023-03-13T14:21:22;0.82;;;0.75;;
75858;SDS011;64504;51.308;8.620;2023-03-13T14:23:48;1.00;;;1.00;;
75858;SDS011;64504;51.308;8.620;2023-03-13T14:28:50;1.42;;;1.33;;
75858;SDS011;64504;51.308;8.620;2023-03-13T14:31:30;1.08;;;1.05;;
75858;SDS011;64504;51.308;8.620;2023-03-13T14:33:57;1.08;;;0.98;;
75858;SDS011;64504;51.308;8.620;2023-03-13T14:36:24;4.53;;;1.27;;
75858;SDS011;64504;51.308;8.620;2023-03-13T14:38:55;1.38;;;1.27;;
75858;SDS011;64504;51.308;8.620;2023-03-13T14:41:39;1.02;;;0.98;;
75858;SDS011;64504;51.308;8.620;2023-03-13T14:46:49;2.08;;;1.33;;
75858;SDS011;64504;51.308;8.620;2023-03-13T14:49:19;1.17;;;1.10;;
75858;SDS011;64504;51.308;8.620;2023-03-13T14:51:48;1.10;;;1.00;;
75858;SDS011;64504;51.308;8.620;2023-03-13T14:54:31;1.10;;;1.00;;
75858;SDS011;64504;51.308;8.620;2023-03-13T14:59:33;0.88;;;0.88;;
75858;SDS011;64504;51.308;8.620;2023-03-13T15:02:00;1.50;;;1.40;;
75858;SDS011;64504;51.308;8.620;2023-03-13T15:07:16;1.58;;;1.48;;
75858;SDS011;64504;51.308;8.620;2023-03-13T15:09:42;1.55;;;1.45;;
75858;SDS011;64504;51.308;8.620;2023-03-13T15:12:12;1.73;;;1.63;;
75858;SDS011;64504;51.308;8.620;2023-03-13T15:14:40;1.05;;;0.95;;
75858;SDS011;64504;51.308;8.620;2023-03-13T15:19:55;3.13;;;2.10;;
75858;SDS011;64504;51.308;8.620;2023-03-13T15:24:55;6.70;;;1.63;;
75858;SDS011;64504;51.308;8.620;2023-03-13T15:27:22;3.92;;;2.22;;
75858;SDS011;64504;51.308;8.620;2023-03-13T15:29:48;2.30;;;1.25;;
75858;SDS011;64504;51.308;8.620;2023-03-13T15:32:35;1.67;;;1.58;;
75858;SDS011;64504;51.308;8.620;2023-03-13T15:35:10;1.05;;;0.95;;
75858;SDS011;64504;51.308;8.620;2023-03-13T15:37:46;6.43;;;1.65;;
75858;SDS011;64504;51.308;8.620;2023-03-13T15:40:15;2.33;;;1.70;;
75858;SDS011;64504;51.308;8.620;2023-03-13T15:42:41;1.88;;;1.60;;
75858;SDS011;64504;51.308;8.620;2023-03-13T15:45:07;2.22;;;1.77;;
75858;SDS011;64504;51.308;8.620;2023-03-13T15:47:33;2.33;;;1.90;;
75858;SDS011;64504;51.308;8.620;2023-03-13T15:49:58;1.45;;;1.35;;
75858;SDS011;64504;51.308;8.620;2023-03-13T15:52:23;1.73;;;1.63;;
75858;SDS011;64504;51.308;8.620;2023-03-13T15:54:49;1.92;;;1.83;;
75858;SDS011;64504;51.308;8.620;2023-03-13T15:57:16;3.42;;;2.10;;
75858;SDS011;64504;51.308;8.620;2023-03-13T15:59:43;1.17;;;1.10;;
75858;SDS011;64504;51.308;8.620;2023-03-13T16:02:19;1.50;;;1.40;;
75858;SDS011;64504;51.308;8.620;2023-03-13T16:04:45;1.67;;;1.58;;
75858;SDS011;64504;51.308;8.620;2023-03-13T16:07:12;1.70;;;1.60;;
75858;SDS011;64504;51.308;8.620;2023-03-13T16:09:39;3.30;;;1.25;;
75858;SDS011;64504;51.308;8.620;2023-03-13T16:12:06;1.23;;;1.13;;
75858;SDS011;64504;51.308;8.620;2023-03-13T16:14:32;1.73;;;1.35;;
75858;SDS011;64504;51.308;8.620;2023-03-13T16:16:59;1.10;;;1.08;;
75858;SDS011;64504;51.308;8.620;2023-03-13T16:19:25;1.80;;;1.45;;
75858;SDS011;64504;51.308;8.620;2023-03-13T16:21:52;1.30;;;1.10;;
75858;SDS011;64504;51.308;8.620;2023-03-13T16:24:19;0.70;;;0.70;;
75858;SDS011;64504;51.308;8.620;2023-03-13T16:26:45;1.67;;;1.55;;
75858;SDS011;64504;51.308;8.620;2023-03-13T16:29:12;0.95;;;0.90;;
75858;SDS011;64504;51.308;8.620;2023-03-13T16:31:38;2.35;;;1.50;;
75858;SDS011;64504;51.308;8.620;2023-03-13T16:34:04;2.15;;;1.40;;
75858;SDS011;64504;51.308;8.620;2023-03-13T16:36:30;1.55;;;0.95;;
75858;SDS011;64504;51.308;8.620;2023-03-13T16:38:57;0.63;;;0.63;;
75858;SDS011;64504;51.308;8.620;2023-03-13T16:41:23;1.48;;;0.90;;
75858;SDS011;64504;51.308;8.620;2023-03-13T16:43:51;0.90;;;0.73;;
75858;SDS011;64504;51.308;8.620;2023-03-13T16:46:19;0.80;;;0.80;;
75858;SDS011;64504;51.308;8.620;2023-03-13T16:48:46;1.42;;;0.90;;
75858;SDS011;64504;51.308;8.620;2023-03-13T16:51:22;0.70;;;0.70;;
75858;SDS011;64504;51.308;8.620;2023-03-13T16:53:49;1.13;;;1.00;;
75858;SDS011;64504;51.308;8.620;2023-03-13T16:56:25;0.80;;;0.80;;
75858;SDS011;64504;51.308;8.620;2023-03-13T16:58:53;1.42;;;1.30;;
75858;SDS011;64504;51.308;8.620;2023-03-13T17:01:20;1.92;;;1.33;;